sensor_id;sensor_type;location;lat;lon;timestamp;pressure;altitude;pressure_sealevel;temperature;humidity
38033;BME280;23841;48.524;1.342;2023-08-07T00:01:46;99692.19;;;18.84;53.15
38033;BME280;23841;48.524;1.342;2023-08-07T00:04:12;99695.84;;;18.83;53.22
38033;BME280;23841;48.524;1.342;2023-08-07T00:06:37;99694.94;;;18.83;53.20
38033;BME280;23841;48.524;1.342;2023-08-07T00:09:02;99697.66;;;18.83;53.29
38033;BME280;23841;48.524;1.342;2023-08-07T00:11:28;99694.94;;;18.83;53.42
38033;BME280;23841;48.524;1.342;2023-08-07T00:13:54;99695.94;;;18.82;53.04
38033;BME280;23841;48.524;1.342;2023-08-07T00:16:19;99692.41;;;18.80;53.01
38033;BME280;23841;48.524;1.342;2023-08-07T00:18:45;99699.56;;;18.81;53.14
38033;BME280;23841;48.524;1.342;2023-08-07T00:21:11;99696.06;;;18.79;53.22
38033;BME280;23841;48.524;1.342;2023-08-07T00:23:37;99693.34;;;18.79;53.30
38033;BME280;23841;48.524;1.342;2023-08-07T00:26:02;99698.75;;;18.79;53.10
38033;BME280;23841;48.524;1.342;2023-08-07T00:28:27;99694.34;;;18.77;53.07
38033;BME280;23841;48.524;1.342;2023-08-07T00:30:55;99694.38;;;18.76;53.20
38033;BME280;23841;48.524;1.342;2023-08-07T00:33:20;99695.28;;;18.76;52.76
38033;BME280;23841;48.524;1.342;2023-08-07T00:35:46;99689.88;;;18.76;52.89
38033;BME280;23841;48.524;1.342;2023-08-07T00:38:11;99689.00;;;18.76;52.92
38033;BME280;23841;48.524;1.342;2023-08-07T00:40:38;99689.88;;;18.76;52.88
38033;BME280;23841;48.524;1.342;2023-08-07T00:43:04;99693.53;;;18.75;52.78
38033;BME280;23841;48.524;1.342;2023-08-07T00:45:34;99685.44;;;18.75;52.90
38033;BME280;23841;48.524;1.342;2023-08-07T00:48:00;99687.28;;;18.75;53.03
38033;BME280;23841;48.524;1.342;2023-08-07T00:50:25;99689.16;;;18.73;52.92
38033;BME280;23841;48.524;1.342;2023-08-07T00:52:51;99684.66;;;18.73;53.12
38033;BME280;23841;48.524;1.342;2023-08-07T00:55:17;99680.22;;;18.72;53.15
38033;BME280;23841;48.524;1.342;2023-08-07T00:57:42;99682.91;;;18.72;52.98
38033;BME280;23841;48.524;1.342;2023-08-07T01:00:08;99681.16;;;18.71;53.34
38033;BME280;23841;48.524;1.342;2023-08-07T01:02:34;99677.59;;;18.71;53.39
38033;BME280;23841;48.524;1.342;2023-08-07T01:04:59;99675.78;;;18.71;53.21
38033;BME280;23841;48.524;1.342;2023-08-07T01:07:25;99676.72;;;18.70;53.31
38033;BME280;23841;48.524;1.342;2023-08-07T01:09:50;99672.31;;;18.69;53.21
38033;BME280;23841;48.524;1.342;2023-08-07T01:12:19;99666.94;;;18.69;53.35
38033;BME280;23841;48.524;1.342;2023-08-07T01:14:52;99672.31;;;18.69;53.09
38033;BME280;23841;48.524;1.342;2023-08-07T01:17:22;99670.56;;;18.68;53.16
38033;BME280;23841;48.524;1.342;2023-08-07T01:19:50;99673.25;;;18.68;53.26
38033;BME280;23841;48.524;1.342;2023-08-07T01:22:18;99675.94;;;18.68;52.87
38033;BME280;23841;48.524;1.342;2023-08-07T01:24:48;99670.63;;;18.67;53.24
38033;BME280;23841;48.524;1.342;2023-08-07T01:30:11;99667.94;;;18.67;53.17
38033;BME280;23841;48.524;1.342;2023-08-07T01:35:35;99668.03;;;18.65;53.20
38033;BME280;23841;48.524;1.342;2023-08-07T01:38:05;99667.22;;;18.63;53.09
38033;BME280;23841;48.524;1.342;2023-08-07T01:40:30;99667.22;;;18.63;53.24
38033;BME280;23841;48.524;1.342;2023-08-07T01:42:57;99661.84;;;18.63;53.15
38033;BME280;23841;48.524;1.342;2023-08-07T01:45:27;99662.78;;;18.62;53.31
38033;BME280;23841;48.524;1.342;2023-08-07T01:47:53;99671.66;;;18.64;53.18
38033;BME280;23841;48.524;1.342;2023-08-07T01:50:20;99665.47;;;18.62;53.39
38033;BME280;23841;48.524;1.342;2023-08-07T01:52:46;99658.34;;;18.61;53.52
38033;BME280;23841;48.524;1.342;2023-08-07T01:55:13;99653.84;;;18.62;53.30
38033;BME280;23841;48.524;1.342;2023-08-07T01:57:38;99654.78;;;18.60;53.42
38033;BME280;23841;48.524;1.342;2023-08-07T02:00:04;99654.84;;;18.59;53.13
38033;BME280;23841;48.524;1.342;2023-08-07T02:02:30;99662.84;;;18.60;53.43
38033;BME280;23841;48.524;1.342;2023-08-07T02:04:55;99660.25;;;18.59;53.41
38033;BME280;23841;48.524;1.342;2023-08-07T02:07:21;99654.84;;;18.59;53.66
38033;BME280;23841;48.524;1.342;2023-08-07T02:09:46;99653.13;;;18.58;53.33
38033;BME280;23841;48.524;1.342;2023-08-07T02:12:15;99653.13;;;18.58;53.39
38033;BME280;23841;48.524;1.342;2023-08-07T02:14:40;99649.63;;;18.56;53.50
38033;BME280;23841;48.524;1.342;2023-08-07T02:17:06;99660.25;;;18.59;53.43
38033;BME280;23841;48.524;1.342;2023-08-07T02:19:31;99661.25;;;18.56;53.21
38033;BME280;23841;48.524;1.342;2023-08-07T02:21:57;99657.63;;;18.57;53.50
38033;BME280;23841;48.524;1.342;2023-08-07T02:24:22;99657.63;;;18.57;53.50
38033;BME280;23841;48.524;1.342;2023-08-07T02:26:48;99653.19;;;18.56;53.45
38033;BME280;23841;48.524;1.342;2023-08-07T02:29:13;99658.63;;;18.55;53.57
38033;BME280;23841;48.524;1.342;2023-08-07T02:31:39;99654.22;;;18.54;53.68
38033;BME280;23841;48.524;1.342;2023-08-07T02:34:04;99653.25;;;18.55;53.31
38033;BME280;23841;48.524;1.342;2023-08-07T02:36:30;99653.25;;;18.55;53.74
38033;BME280;23841;48.524;1.342;2023-08-07T02:38:55;99654.28;;;18.52;53.60
38033;BME280;23841;48.524;1.342;2023-08-07T02:41:20;99656.03;;;18.53;53.56
38033;BME280;23841;48.524;1.342;2023-08-07T02:43:47;99656.03;;;18.53;53.63
38033;BME280;23841;48.524;1.342;2023-08-07T02:46:12;99661.41;;;18.53;53.71
38033;BME280;23841;48.524;1.342;2023-08-07T02:48:38;99657.88;;;18.53;53.73
38033;BME280;23841;48.524;1.342;2023-08-07T02:51:05;99658.81;;;18.52;53.63
38033;BME280;23841;48.524;1.342;2023-08-07T02:53:30;99660.72;;;18.50;53.48
38033;BME280;23841;48.524;1.342;2023-08-07T02:55:56;99648.13;;;18.50;53.59
38033;BME280;23841;48.524;1.342;2023-08-07T02:58:21;99658.03;;;18.50;53.45
38033;BME280;23841;48.524;1.342;2023-08-07T03:00:47;99666.94;;;18.50;53.38
38033;BME280;23841;48.524;1.342;2023-08-07T03:03:12;99664.34;;;18.49;53.38
38033;BME280;23841;48.524;1.342;2023-08-07T03:05:37;99659.81;;;18.49;53.13
38033;BME280;23841;48.524;1.342;2023-08-07T03:08:03;99653.66;;;18.47;53.12
38033;BME280;23841;48.524;1.342;2023-08-07T03:10:29;99658.06;;;18.48;53.09
38033;BME280;23841;48.524;1.342;2023-08-07T03:12:54;99663.44;;;18.48;53.28
38033;BME280;23841;48.524;1.342;2023-08-07T03:15:19;99659.91;;;18.48;53.32
38033;BME280;23841;48.524;1.342;2023-08-07T03:17:45;99663.53;;;18.47;53.07
38033;BME280;23841;48.524;1.342;2023-08-07T03:20:11;99655.53;;;18.45;53.24
38033;BME280;23841;48.524;1.342;2023-08-07T03:22:36;99659.97;;;18.46;53.09
38033;BME280;23841;48.524;1.342;2023-08-07T03:25:02;99656.44;;;18.46;53.07
38033;BME280;23841;48.524;1.342;2023-08-07T03:27:27;99659.97;;;18.46;52.99
38033;BME280;23841;48.524;1.342;2023-08-07T03:29:53;99660.91;;;18.45;52.97
38033;BME280;23841;48.524;1.342;2023-08-07T03:32:19;99666.38;;;18.43;53.14
38033;BME280;23841;48.524;1.342;2023-08-07T03:34:44;99661.00;;;18.43;52.89
38033;BME280;23841;48.524;1.342;2023-08-07T03:37:09;99664.56;;;18.44;52.98
38033;BME280;23841;48.524;1.342;2023-08-07T03:39:35;99665.50;;;18.43;53.00
38033;BME280;23841;48.524;1.342;2023-08-07T03:42:00;99662.91;;;18.41;53.02
38033;BME280;23841;48.524;1.342;2023-08-07T03:44:26;99662.00;;;18.41;52.83
38033;BME280;23841;48.524;1.342;2023-08-07T03:46:51;99667.38;;;18.41;52.88
38033;BME280;23841;48.524;1.342;2023-08-07T03:49:17;99665.66;;;18.40;52.97
38033;BME280;23841;48.524;1.342;2023-08-07T03:51:42;99664.78;;;18.39;52.82
38033;BME280;23841;48.524;1.342;2023-08-07T03:54:08;99663.03;;;18.38;52.85
38033;BME280;23841;48.524;1.342;2023-08-07T03:56:33;99655.84;;;18.39;53.05
38033;BME280;23841;48.524;1.342;2023-08-07T03:59:02;99659.47;;;18.38;52.86
38033;BME280;23841;48.524;1.342;2023-08-07T04:01:28;99664.00;;;18.37;53.12
38033;BME280;23841;48.524;1.342;2023-08-07T04:03:53;99661.38;;;18.36;52.99
38033;BME280;23841;48.524;1.342;2023-08-07T04:06:18;99665.78;;;18.37;52.84
38033;BME280;23841;48.524;1.342;2023-08-07T04:08:46;99670.31;;;18.36;53.00
38033;BME280;23841;48.524;1.342;2023-08-07T04:11:11;99663.16;;;18.35;52.84
38033;BME280;23841;48.524;1.342;2023-08-07T04:13:37;99660.56;;;18.34;53.17
38033;BME280;23841;48.524;1.342;2023-08-07T04:16:02;99667.78;;;18.33;53.09
38033;BME280;23841;48.524;1.342;2023-08-07T04:18:29;99667.69;;;18.35;53.09
38033;BME280;23841;48.524;1.342;2023-08-07T04:20:56;99672.19;;;18.34;53.16
38033;BME280;23841;48.524;1.342;2023-08-07T04:23:22;99672.19;;;18.34;53.29
38033;BME280;23841;48.524;1.342;2023-08-07T04:25:48;99671.31;;;18.34;53.54
38033;BME280;23841;48.524;1.342;2023-08-07T04:28:14;99675.84;;;18.33;53.37
38033;BME280;23841;48.524;1.342;2023-08-07T04:30:43;99676.69;;;18.34;53.24
38033;BME280;23841;48.524;1.342;2023-08-07T04:33:09;99681.22;;;18.33;53.24
38033;BME280;23841;48.524;1.342;2023-08-07T04:35:34;99673.22;;;18.32;53.43
38033;BME280;23841;48.524;1.342;2023-08-07T04:38:00;99672.34;;;18.31;53.18
38033;BME280;23841;48.524;1.342;2023-08-07T04:40:27;99665.25;;;18.30;53.30
38033;BME280;23841;48.524;1.342;2023-08-07T04:42:53;99658.09;;;18.29;53.25
38033;BME280;23841;48.524;1.342;2023-08-07T04:45:18;99660.78;;;18.29;53.20
38033;BME280;23841;48.524;1.342;2023-08-07T04:47:43;99666.16;;;18.29;53.20
38033;BME280;23841;48.524;1.342;2023-08-07T04:50:09;99665.34;;;18.27;53.29
38033;BME280;23841;48.524;1.342;2023-08-07T04:52:35;99673.34;;;18.29;53.34
38033;BME280;23841;48.524;1.342;2023-08-07T04:55:01;99674.31;;;18.28;53.44
38033;BME280;23841;48.524;1.342;2023-08-07T04:57:26;99677.00;;;18.28;53.26
38033;BME280;23841;48.524;1.342;2023-08-07T04:59:52;99679.78;;;18.26;53.43
38033;BME280;23841;48.524;1.342;2023-08-07T05:02:18;99683.41;;;18.25;53.31
38033;BME280;23841;48.524;1.342;2023-08-07T05:04:43;99685.16;;;18.26;53.16
38033;BME280;23841;48.524;1.342;2023-08-07T05:07:09;99694.16;;;18.25;53.29
38033;BME280;23841;48.524;1.342;2023-08-07T05:09:35;99687.03;;;18.24;53.30
38033;BME280;23841;48.524;1.342;2023-08-07T05:12:00;99698.63;;;18.24;53.33
38033;BME280;23841;48.524;1.342;2023-08-07T05:14:26;99708.53;;;18.24;53.04
38033;BME280;23841;48.524;1.342;2023-08-07T05:16:51;99709.47;;;18.23;53.10
38033;BME280;23841;48.524;1.342;2023-08-07T05:19:17;99705.91;;;18.22;53.19
38033;BME280;23841;48.524;1.342;2023-08-07T05:21:42;99710.44;;;18.22;53.18
38033;BME280;23841;48.524;1.342;2023-08-07T05:24:08;99714.06;;;18.21;53.09
38033;BME280;23841;48.524;1.342;2023-08-07T05:26:33;99718.50;;;18.22;52.90
38033;BME280;23841;48.524;1.342;2023-08-07T05:28:58;99714.06;;;18.21;53.15
38033;BME280;23841;48.524;1.342;2023-08-07T05:31:24;99715.84;;;18.20;52.92
38033;BME280;23841;48.524;1.342;2023-08-07T05:33:50;99715.00;;;18.20;52.98
38033;BME280;23841;48.524;1.342;2023-08-07T05:36:16;99716.81;;;18.19;52.98
38033;BME280;23841;48.524;1.342;2023-08-07T05:38:41;99715.94;;;18.19;53.01
38033;BME280;23841;48.524;1.342;2023-08-07T05:41:08;99717.75;;;18.18;53.08
38033;BME280;23841;48.524;1.342;2023-08-07T05:43:34;99716.97;;;18.16;52.85
38033;BME280;23841;48.524;1.342;2023-08-07T05:45:59;99717.84;;;18.17;53.08
38033;BME280;23841;48.524;1.342;2023-08-07T05:48:25;99724.16;;;18.16;52.99
38033;BME280;23841;48.524;1.342;2023-08-07T05:50:51;99721.47;;;18.16;53.19
38033;BME280;23841;48.524;1.342;2023-08-07T05:53:17;99725.09;;;18.15;53.19
38033;BME280;23841;48.524;1.342;2023-08-07T05:55:42;99727.78;;;18.15;53.22
38033;BME280;23841;48.524;1.342;2023-08-07T05:58:08;99722.47;;;18.13;53.46
38033;BME280;23841;48.524;1.342;2023-08-07T06:00:33;99715.38;;;18.12;53.39
38033;BME280;23841;48.524;1.342;2023-08-07T06:03:00;99721.59;;;18.13;53.48
38033;BME280;23841;48.524;1.342;2023-08-07T06:05:25;99724.28;;;18.13;53.47
38033;BME280;23841;48.524;1.342;2023-08-07T06:07:51;99722.53;;;18.12;53.61
38033;BME280;23841;48.524;1.342;2023-08-07T06:10:16;99724.38;;;18.11;53.53
38033;BME280;23841;48.524;1.342;2023-08-07T06:12:47;99728.84;;;18.11;53.67
38033;BME280;23841;48.524;1.342;2023-08-07T06:15:12;99726.16;;;18.11;53.59
38033;BME280;23841;48.524;1.342;2023-08-07T06:17:38;99737.88;;;18.10;53.85
38033;BME280;23841;48.524;1.342;2023-08-07T06:20:07;99730.75;;;18.08;53.91
38033;BME280;23841;48.524;1.342;2023-08-07T06:22:34;99738.81;;;18.08;53.95
38033;BME280;23841;48.524;1.342;2023-08-07T06:25:00;99737.00;;;18.09;53.77
38033;BME280;23841;48.524;1.342;2023-08-07T06:27:25;99736.13;;;18.08;53.88
38033;BME280;23841;48.524;1.342;2023-08-07T06:29:50;99737.00;;;18.09;54.14
38033;BME280;23841;48.524;1.342;2023-08-07T06:32:16;99731.69;;;18.07;54.30
38033;BME280;23841;48.524;1.342;2023-08-07T06:34:43;99729.00;;;18.07;54.42
38033;BME280;23841;48.524;1.342;2023-08-07T06:37:08;99742.44;;;18.07;54.49
38033;BME280;23841;48.524;1.342;2023-08-07T06:39:34;99741.50;;;18.08;54.44
38033;BME280;23841;48.524;1.342;2023-08-07T06:41:59;99746.03;;;18.08;54.45
38033;BME280;23841;48.524;1.342;2023-08-07T06:44:26;99737.97;;;18.08;54.47
38033;BME280;23841;48.524;1.342;2023-08-07T06:46:51;99745.13;;;18.07;54.62
38033;BME280;23841;48.524;1.342;2023-08-07T06:49:17;99754.16;;;18.06;54.74
38033;BME280;23841;48.524;1.342;2023-08-07T06:51:43;99752.34;;;18.07;54.86
38033;BME280;23841;48.524;1.342;2023-08-07T06:54:08;99746.97;;;18.07;54.90
38033;BME280;23841;48.524;1.342;2023-08-07T06:56:34;99754.16;;;18.06;55.23
38033;BME280;23841;48.524;1.342;2023-08-07T06:58:59;99744.28;;;18.07;55.45
38033;BME280;23841;48.524;1.342;2023-08-07T07:01:25;99746.09;;;18.06;55.97
38033;BME280;23841;48.524;1.342;2023-08-07T07:03:50;99743.41;;;18.06;56.03
38033;BME280;23841;48.524;1.342;2023-08-07T07:06:20;99742.50;;;18.06;56.20
38033;BME280;23841;48.524;1.342;2023-08-07T07:08:46;99746.13;;;18.05;56.38
38033;BME280;23841;48.524;1.342;2023-08-07T07:11:12;99756.84;;;18.06;56.27
38033;BME280;23841;48.524;1.342;2023-08-07T07:13:37;99756.84;;;18.06;56.30
38033;BME280;23841;48.524;1.342;2023-08-07T07:16:03;99740.75;;;18.05;56.47
38033;BME280;23841;48.524;1.342;2023-08-07T07:18:28;99758.72;;;18.04;56.62
38033;BME280;23841;48.524;1.342;2023-08-07T07:20:58;99756.97;;;18.03;56.85
38033;BME280;23841;48.524;1.342;2023-08-07T07:23:27;99756.19;;;18.01;56.51
38033;BME280;23841;48.524;1.342;2023-08-07T07:25:53;99766.00;;;18.02;56.41
38033;BME280;23841;48.524;1.342;2023-08-07T07:28:18;99757.94;;;18.02;56.39
38033;BME280;23841;48.524;1.342;2023-08-07T07:30:43;99760.63;;;18.02;56.59
38033;BME280;23841;48.524;1.342;2023-08-07T07:33:09;99763.31;;;18.02;56.66
38033;BME280;23841;48.524;1.342;2023-08-07T07:35:39;99773.09;;;18.03;56.48
38033;BME280;23841;48.524;1.342;2023-08-07T07:38:06;99771.38;;;18.02;56.72
38033;BME280;23841;48.524;1.342;2023-08-07T07:40:31;99769.63;;;18.01;56.55
38033;BME280;23841;48.524;1.342;2023-08-07T07:42:57;99768.69;;;18.02;56.49
38033;BME280;23841;48.524;1.342;2023-08-07T07:45:23;99773.16;;;18.02;57.12
38033;BME280;23841;48.524;1.342;2023-08-07T07:47:48;99780.38;;;18.01;57.32
38033;BME280;23841;48.524;1.342;2023-08-07T07:50:13;99772.31;;;18.01;56.64
38033;BME280;23841;48.524;1.342;2023-08-07T07:52:39;99786.69;;;18.00;56.23
38033;BME280;23841;48.524;1.342;2023-08-07T07:55:05;99784.84;;;18.01;56.97
38033;BME280;23841;48.524;1.342;2023-08-07T07:57:31;99786.69;;;18.00;56.43
38033;BME280;23841;48.524;1.342;2023-08-07T07:59:57;99791.13;;;18.01;56.85
38033;BME280;23841;48.524;1.342;2023-08-07T08:02:22;99786.69;;;18.00;56.54
38033;BME280;23841;48.524;1.342;2023-08-07T08:04:50;99787.53;;;18.01;56.25
38033;BME280;23841;48.524;1.342;2023-08-07T08:07:16;99786.59;;;18.02;56.74
38033;BME280;23841;48.524;1.342;2023-08-07T08:09:41;99792.91;;;18.01;57.19
38033;BME280;23841;48.524;1.342;2023-08-07T08:12:07;99792.06;;;18.00;57.00
38033;BME280;23841;48.524;1.342;2023-08-07T08:14:33;99793.81;;;18.01;57.13
38033;BME280;23841;48.524;1.342;2023-08-07T08:16:58;99792.88;;;18.02;57.48
38033;BME280;23841;48.524;1.342;2023-08-07T08:19:24;99788.44;;;18.01;57.04
38033;BME280;23841;48.524;1.342;2023-08-07T08:21:49;99799.19;;;18.01;58.31
38033;BME280;23841;48.524;1.342;2023-08-07T08:24:15;99796.50;;;18.01;57.31
38033;BME280;23841;48.524;1.342;2023-08-07T08:26:40;99794.66;;;18.02;57.74
38033;BME280;23841;48.524;1.342;2023-08-07T08:29:06;99795.56;;;18.02;57.85
38033;BME280;23841;48.524;1.342;2023-08-07T08:31:34;99802.72;;;18.02;57.31
38033;BME280;23841;48.524;1.342;2023-08-07T08:33:59;99801.81;;;18.03;56.99
38033;BME280;23841;48.524;1.342;2023-08-07T08:36:26;99801.81;;;18.03;56.96
38033;BME280;23841;48.524;1.342;2023-08-07T08:38:52;99795.56;;;18.02;57.83
38033;BME280;23841;48.524;1.342;2023-08-07T08:41:17;99797.28;;;18.03;57.43
38033;BME280;23841;48.524;1.342;2023-08-07T08:43:45;99799.03;;;18.04;57.76
38033;BME280;23841;48.524;1.342;2023-08-07T08:46:15;99791.91;;;18.03;57.12
38033;BME280;23841;48.524;1.342;2023-08-07T08:48:44;99791.91;;;18.03;57.33
38033;BME280;23841;48.524;1.342;2023-08-07T08:51:12;99795.50;;;18.04;57.63
38033;BME280;23841;48.524;1.342;2023-08-07T08:53:39;99805.34;;;18.03;57.60
38033;BME280;23841;48.524;1.342;2023-08-07T08:56:05;99808.94;;;18.04;57.75
38033;BME280;23841;48.524;1.342;2023-08-07T08:58:31;99804.41;;;18.04;57.78
38033;BME280;23841;48.524;1.342;2023-08-07T09:00:57;99806.16;;;18.05;58.05
38033;BME280;23841;48.524;1.342;2023-08-07T09:03:24;99807.97;;;18.05;57.54
38033;BME280;23841;48.524;1.342;2023-08-07T09:05:52;99815.16;;;18.04;58.49
38033;BME280;23841;48.524;1.342;2023-08-07T09:08:20;99810.72;;;18.03;58.58
38033;BME280;23841;48.524;1.342;2023-08-07T09:10:47;99811.69;;;18.02;58.46
38033;BME280;23841;48.524;1.342;2023-08-07T09:13:14;99815.16;;;18.04;58.23
38033;BME280;23841;48.524;1.342;2023-08-07T09:15:41;99812.47;;;18.04;58.13
38033;BME280;23841;48.524;1.342;2023-08-07T09:18:13;99801.66;;;18.06;58.04
38033;BME280;23841;48.524;1.342;2023-08-07T09:20:38;99807.94;;;18.06;57.84
38033;BME280;23841;48.524;1.342;2023-08-07T09:23:07;99806.97;;;18.07;57.85
38033;BME280;23841;48.524;1.342;2023-08-07T09:25:33;99813.31;;;18.06;57.82
38033;BME280;23841;48.524;1.342;2023-08-07T09:28:05;99809.66;;;18.07;58.01
38033;BME280;23841;48.524;1.342;2023-08-07T09:30:32;99806.97;;;18.07;58.24
38033;BME280;23841;48.524;1.342;2023-08-07T09:33:00;99806.09;;;18.07;57.58
38033;BME280;23841;48.524;1.342;2023-08-07T09:35:26;99799.78;;;18.08;57.48
38033;BME280;23841;48.524;1.342;2023-08-07T09:37:52;99795.28;;;18.08;57.69
38033;BME280;23841;48.524;1.342;2023-08-07T09:40:19;99795.28;;;18.08;57.88
38033;BME280;23841;48.524;1.342;2023-08-07T09:42:50;99796.06;;;18.11;58.18
38033;BME280;23841;48.524;1.342;2023-08-07T09:45:24;99796.06;;;18.11;58.02
38033;BME280;23841;48.524;1.342;2023-08-07T09:48:22;99801.41;;;18.12;57.57
38033;BME280;23841;48.524;1.342;2023-08-07T09:50:49;99797.75;;;18.13;58.05
38033;BME280;23841;48.524;1.342;2023-08-07T09:53:14;99794.19;;;18.13;57.83
38033;BME280;23841;48.524;1.342;2023-08-07T09:55:40;99793.19;;;18.15;57.86
38033;BME280;23841;48.524;1.342;2023-08-07T09:58:08;99793.13;;;18.17;57.72
38033;BME280;23841;48.524;1.342;2023-08-07T10:00:34;99786.88;;;18.16;57.67
38033;BME280;23841;48.524;1.342;2023-08-07T10:03:04;99786.00;;;18.16;57.89
38033;BME280;23841;48.524;1.342;2023-08-07T10:05:30;99787.75;;;18.17;58.16
38033;BME280;23841;48.524;1.342;2023-08-07T10:07:57;99785.06;;;18.17;57.78
38033;BME280;23841;48.524;1.342;2023-08-07T10:10:23;99793.03;;;18.18;57.72
38033;BME280;23841;48.524;1.342;2023-08-07T10:12:51;99787.59;;;18.20;58.27
38033;BME280;23841;48.524;1.342;2023-08-07T10:15:19;99792.91;;;18.21;58.17
38033;BME280;23841;48.524;1.342;2023-08-07T10:17:44;99787.44;;;18.23;58.26
38033;BME280;23841;48.524;1.342;2023-08-07T10:20:11;99785.72;;;18.22;58.46
38033;BME280;23841;48.524;1.342;2023-08-07T10:22:38;99771.31;;;18.23;58.22
38033;BME280;23841;48.524;1.342;2023-08-07T10:25:06;99787.44;;;18.23;58.26
38033;BME280;23841;48.524;1.342;2023-08-07T10:27:36;99791.81;;;18.25;58.79
38033;BME280;23841;48.524;1.342;2023-08-07T10:30:06;99804.31;;;18.27;58.47
38033;BME280;23841;48.524;1.342;2023-08-07T10:32:33;99800.78;;;18.26;58.26
38033;BME280;23841;48.524;1.342;2023-08-07T10:35:05;99805.19;;;18.27;58.01
38033;BME280;23841;48.524;1.342;2023-08-07T10:40:04;99792.56;;;18.29;58.22
38033;BME280;23841;48.524;1.342;2023-08-07T10:42:54;99790.66;;;18.31;58.55
38033;BME280;23841;48.524;1.342;2023-08-07T10:45:22;99795.19;;;18.31;58.37
38033;BME280;23841;48.524;1.342;2023-08-07T10:48:12;99799.56;;;18.33;58.30
38033;BME280;23841;48.524;1.342;2023-08-07T10:50:51;99798.59;;;18.34;58.71
38033;BME280;23841;48.524;1.342;2023-08-07T10:53:29;99793.28;;;18.33;58.72
38033;BME280;23841;48.524;1.342;2023-08-07T10:55:55;99792.25;;;18.35;58.73
38033;BME280;23841;48.524;1.342;2023-08-07T10:58:34;99787.78;;;18.36;58.62
38033;BME280;23841;48.524;1.342;2023-08-07T11:01:39;99787.72;;;18.37;58.75
38033;BME280;23841;48.524;1.342;2023-08-07T11:04:11;99779.63;;;18.37;58.54
38033;BME280;23841;48.524;1.342;2023-08-07T11:06:39;99777.72;;;18.39;58.57
38033;BME280;23841;48.524;1.342;2023-08-07T11:09:08;99783.13;;;18.39;58.47
38033;BME280;23841;48.524;1.342;2023-08-07T11:11:41;99783.03;;;18.41;58.86
38033;BME280;23841;48.524;1.342;2023-08-07T11:14:11;99770.47;;;18.41;58.32
38033;BME280;23841;48.524;1.342;2023-08-07T11:16:37;99782.09;;;18.42;58.66
38033;BME280;23841;48.524;1.342;2023-08-07T11:19:03;99775.88;;;18.41;58.72
38033;BME280;23841;48.524;1.342;2023-08-07T11:21:32;99763.19;;;18.43;58.75
38033;BME280;23841;48.524;1.342;2023-08-07T11:23:59;99771.28;;;18.43;58.41
38033;BME280;23841;48.524;1.342;2023-08-07T11:26:25;99764.97;;;18.45;58.93
38033;BME280;23841;48.524;1.342;2023-08-07T11:28:53;99771.94;;;18.49;58.88
38033;BME280;23841;48.524;1.342;2023-08-07T11:31:19;99774.63;;;18.49;58.70
38033;BME280;23841;48.524;1.342;2023-08-07T11:33:44;99774.56;;;18.50;59.10
38033;BME280;23841;48.524;1.342;2023-08-07T11:36:11;99773.69;;;18.50;59.00
38033;BME280;23841;48.524;1.342;2023-08-07T11:38:42;99771.78;;;18.52;58.75
38033;BME280;23841;48.524;1.342;2023-08-07T11:41:12;99773.53;;;18.53;58.73
38033;BME280;23841;48.524;1.342;2023-08-07T11:43:40;99769.03;;;18.53;58.81
38033;BME280;23841;48.524;1.342;2023-08-07T11:46:08;99764.53;;;18.54;58.66
38033;BME280;23841;48.524;1.342;2023-08-07T11:48:35;99768.94;;;18.55;58.80
38033;BME280;23841;48.524;1.342;2023-08-07T11:51:03;99751.88;;;18.56;58.50
38033;BME280;23841;48.524;1.342;2023-08-07T11:53:30;99757.16;;;18.57;58.53
38033;BME280;23841;48.524;1.342;2023-08-07T11:56:01;99758.06;;;18.58;58.51
38033;BME280;23841;48.524;1.342;2023-08-07T11:58:37;99746.34;;;18.59;58.46
38033;BME280;23841;48.524;1.342;2023-08-07T12:01:05;99753.47;;;18.60;58.62
38033;BME280;23841;48.524;1.342;2023-08-07T12:03:41;99749.03;;;18.59;58.20
38033;BME280;23841;48.524;1.342;2023-08-07T12:06:10;99749.91;;;18.59;58.22
38033;BME280;23841;48.524;1.342;2023-08-07T12:08:40;99743.47;;;18.62;57.76
38033;BME280;23841;48.524;1.342;2023-08-07T12:11:12;99744.31;;;18.64;57.98
38033;BME280;23841;48.524;1.342;2023-08-07T12:13:42;99735.13;;;18.68;57.54
38033;BME280;23841;48.524;1.342;2023-08-07T12:16:09;99739.59;;;18.69;57.64
38033;BME280;23841;48.524;1.342;2023-08-07T12:18:35;99735.06;;;18.70;57.76
38033;BME280;23841;48.524;1.342;2023-08-07T12:21:07;99728.91;;;18.68;57.59
38033;BME280;23841;48.524;1.342;2023-08-07T12:23:33;99725.16;;;18.70;57.00
38033;BME280;23841;48.524;1.342;2023-08-07T12:26:00;99726.91;;;18.71;57.24
38033;BME280;23841;48.524;1.342;2023-08-07T12:28:25;99719.72;;;18.72;56.86
38033;BME280;23841;48.524;1.342;2023-08-07T12:30:51;99720.59;;;18.72;56.87
38033;BME280;23841;48.524;1.342;2023-08-07T12:33:18;99727.66;;;18.75;56.83
38033;BME280;23841;48.524;1.342;2023-08-07T12:35:44;99731.19;;;18.75;56.96
38033;BME280;23841;48.524;1.342;2023-08-07T12:38:10;99732.94;;;18.76;56.92
38033;BME280;23841;48.524;1.342;2023-08-07T12:40:36;99732.06;;;18.76;56.96
38033;BME280;23841;48.524;1.342;2023-08-07T12:43:05;99722.19;;;18.76;57.04
38033;BME280;23841;48.524;1.342;2023-08-07T12:45:31;99731.19;;;18.75;56.85
38033;BME280;23841;48.524;1.342;2023-08-07T12:47:57;99732.06;;;18.76;56.69
38033;BME280;23841;48.524;1.342;2023-08-07T12:50:22;99726.66;;;18.76;56.39
38033;BME280;23841;48.524;1.342;2023-08-07T12:52:47;99734.69;;;18.77;56.37
38033;BME280;23841;48.524;1.342;2023-08-07T12:55:13;99739.19;;;18.77;56.42
38033;BME280;23841;48.524;1.342;2023-08-07T12:57:42;99736.41;;;18.79;56.45
38033;BME280;23841;48.524;1.342;2023-08-07T13:00:12;99732.94;;;18.76;56.23
38033;BME280;23841;48.524;1.342;2023-08-07T13:02:43;99741.81;;;18.79;56.41
38033;BME280;23841;48.524;1.342;2023-08-07T13:05:10;99732.78;;;18.80;56.37
38033;BME280;23841;48.524;1.342;2023-08-07T13:07:36;99734.38;;;18.84;56.15